createdAt,value
2023-05-09T00:01:22.931Z,17.89
2023-05-09T00:03:52.194Z,17.88
2023-05-09T00:06:19.943Z,17.87
2023-05-09T00:08:47.055Z,17.87
2023-05-09T00:11:13.861Z,17.84
2023-05-09T00:13:41.957Z,17.85
2023-05-09T00:16:09.318Z,17.85
2023-05-09T00:18:37.589Z,17.85
2023-05-09T00:21:05.241Z,17.83
2023-05-09T00:23:32.039Z,17.77
2023-05-09T00:25:59.532Z,17.68
2023-05-09T00:28:26.782Z,17.58
2023-05-09T00:30:53.843Z,17.49
2023-05-09T00:33:20.833Z,17.41
2023-05-09T00:35:47.831Z,17.34
2023-05-09T00:38:15.178Z,17.31
2023-05-09T00:40:42.004Z,17.24
2023-05-09T00:43:08.871Z,17.22
2023-05-09T00:45:35.784Z,17.16
2023-05-09T00:48:03.316Z,17.11
2023-05-09T00:50:31.141Z,17.04
2023-05-09T00:52:58.744Z,17.00
2023-05-09T00:55:27.331Z,16.95
2023-05-09T00:57:54.074Z,16.91
2023-05-09T01:00:21.550Z,16.90
2023-05-09T01:02:53.469Z,16.88
2023-05-09T01:05:21.617Z,16.83
2023-05-09T01:08:00.627Z,16.84
2023-05-09T01:10:42.429Z,16.80
2023-05-09T01:13:15.081Z,16.76
2023-05-09T01:16:06.248Z,16.72
2023-05-09T01:18:57.008Z,16.68
2023-05-09T01:21:30.553Z,16.61
2023-05-09T01:24:00.815Z,16.55
2023-05-09T01:26:52.341Z,16.54
2023-05-09T01:29:36.640Z,16.53
2023-05-09T01:32:10.010Z,16.51
2023-05-09T01:34:38.878Z,16.52
2023-05-09T01:37:07.474Z,16.51
2023-05-09T01:39:38.586Z,16.47
2023-05-09T01:42:08.830Z,16.41
2023-05-09T01:44:42.589Z,16.38
2023-05-09T01:47:10.916Z,16.33
2023-05-09T01:49:40.215Z,16.29
2023-05-09T01:52:16.918Z,16.29
2023-05-09T01:54:45.951Z,16.29
2023-05-09T01:57:13.699Z,16.33
2023-05-09T01:59:43.137Z,16.34
2023-05-09T02:02:10.462Z,16.32
2023-05-09T02:04:39.383Z,16.29
2023-05-09T02:07:07.595Z,16.25
2023-05-09T02:09:34.853Z,16.20
2023-05-09T02:12:02.218Z,16.18
2023-05-09T02:14:29.887Z,16.17
2023-05-09T02:16:56.867Z,16.14
2023-05-09T02:19:24.310Z,16.10
2023-05-09T02:21:51.212Z,16.08
2023-05-09T02:24:18.135Z,16.06
2023-05-09T02:26:45.573Z,16.05
2023-05-09T02:29:12.921Z,16.03
2023-05-09T02:31:41.546Z,16.05
2023-05-09T02:34:09.800Z,16.04
2023-05-09T02:36:37.946Z,16.01
2023-05-09T02:39:05.030Z,16.05
2023-05-09T02:41:31.985Z,16.10
2023-05-09T02:43:58.866Z,16.16
2023-05-09T02:46:26.187Z,16.18
2023-05-09T02:48:53.583Z,16.16
2023-05-09T02:51:20.444Z,16.13
2023-05-09T02:53:47.267Z,16.12
2023-05-09T02:56:14.315Z,16.10
2023-05-09T02:58:41.256Z,16.08
2023-05-09T03:01:09.860Z,16.03
2023-05-09T03:03:38.345Z,16.08
2023-05-09T03:06:06.481Z,16.17
2023-05-09T03:08:33.454Z,16.28
2023-05-09T03:11:00.856Z,16.35
2023-05-09T03:13:28.289Z,16.43
2023-05-09T03:15:57.122Z,16.50
2023-05-09T03:18:24.229Z,16.53
2023-05-09T03:20:51.562Z,16.59
2023-05-09T03:23:19.229Z,16.65
2023-05-09T03:25:46.041Z,16.69
2023-05-09T03:28:12.804Z,16.75
2023-05-09T03:30:39.986Z,16.77
2023-05-09T03:33:10.633Z,16.79
2023-05-09T03:35:37.400Z,16.79
2023-05-09T03:38:05.794Z,16.81
2023-05-09T03:40:32.804Z,16.82
2023-05-09T03:43:06.572Z,16.82
2023-05-09T03:45:33.604Z,16.82
2023-05-09T03:48:01.181Z,16.83
2023-05-09T03:50:29.395Z,16.84
2023-05-09T03:52:58.101Z,16.86
2023-05-09T03:55:26.304Z,16.91
2023-05-09T03:57:54.044Z,16.94
2023-05-09T04:00:22.757Z,16.96
2023-05-09T04:03:00.629Z,16.99
2023-05-09T04:05:36.299Z,17.01
2023-05-09T04:08:05.264Z,17.05
2023-05-09T04:10:32.850Z,17.07
2023-05-09T04:12:59.896Z,17.09
2023-05-09T04:15:26.785Z,17.12
2023-05-09T04:17:54.302Z,17.12
2023-05-09T04:20:21.183Z,17.14
2023-05-09T04:22:48.127Z,17.15
2023-05-09T04:25:17.120Z,17.16
2023-05-09T04:27:45.581Z,17.18
2023-05-09T04:30:12.947Z,17.17
2023-05-09T04:32:40.636Z,17.21
2023-05-09T04:35:09.130Z,17.26
2023-05-09T04:37:40.282Z,17.29
2023-05-09T04:40:09.411Z,17.30
2023-05-09T04:42:46.886Z,17.37
2023-05-09T04:45:16.493Z,17.38
2023-05-09T04:47:44.343Z,17.43
2023-05-09T04:50:11.765Z,17.46
2023-05-09T04:52:38.736Z,17.51
2023-05-09T04:55:06.528Z,17.52
2023-05-09T04:57:41.812Z,17.48
2023-05-09T05:00:11.731Z,17.45
2023-05-09T05:02:39.572Z,17.47
2023-05-09T05:05:12.215Z,17.47
2023-05-09T05:07:42.537Z,17.51
2023-05-09T05:10:11.575Z,17.53
2023-05-09T05:12:41.126Z,17.57
2023-05-09T05:15:11.574Z,17.63
2023-05-09T05:17:39.629Z,17.68
2023-05-09T05:20:10.560Z,17.73
2023-05-09T05:22:41.672Z,17.73
2023-05-09T05:25:08.851Z,17.78
2023-05-09T05:27:36.960Z,17.77
2023-05-09T05:30:04.749Z,17.81
2023-05-09T05:32:31.879Z,17.91
2023-05-09T05:35:02.617Z,18.03
2023-05-09T05:37:29.801Z,18.18
2023-05-09T05:39:56.893Z,18.23
2023-05-09T05:42:25.191Z,18.30
2023-05-09T05:44:51.996Z,18.38
2023-05-09T05:47:18.856Z,18.46
2023-05-09T05:49:46.293Z,18.55
2023-05-09T05:52:13.261Z,18.64
2023-05-09T05:54:40.702Z,18.71
2023-05-09T05:57:08.351Z,18.77
2023-05-09T05:59:36.538Z,18.92
2023-05-09T06:02:03.512Z,18.99
2023-05-09T06:04:31.126Z,19.02
2023-05-09T06:06:59.211Z,19.08
2023-05-09T06:09:27.347Z,19.13
2023-05-09T06:11:54.427Z,19.00
2023-05-09T06:14:21.328Z,18.89
2023-05-09T06:16:48.690Z,18.81
2023-05-09T06:19:15.761Z,18.71
2023-05-09T06:21:42.987Z,18.66
2023-05-09T06:24:14.420Z,18.68
2023-05-09T06:26:51.250Z,18.72
2023-05-09T06:29:18.095Z,18.80
2023-05-09T06:31:45.575Z,18.92
2023-05-09T06:34:12.555Z,19.07
2023-05-09T06:36:39.469Z,19.29
2023-05-09T06:39:06.387Z,19.45
2023-05-09T06:41:33.257Z,19.48
2023-05-09T06:44:02.708Z,19.55
2023-05-09T06:46:29.803Z,19.51
2023-05-09T06:48:56.937Z,19.45
2023-05-09T06:51:25.060Z,19.38
2023-05-09T06:53:55.648Z,19.25
2023-05-09T06:56:23.303Z,19.24
2023-05-09T06:58:50.522Z,19.20
2023-05-09T07:01:17.886Z,19.23
2023-05-09T07:03:47.918Z,19.28
2023-05-09T07:06:14.836Z,19.32
2023-05-09T07:08:41.763Z,19.35
2023-05-09T07:11:08.951Z,19.41
2023-05-09T07:13:36.707Z,19.43
2023-05-09T07:16:04.794Z,19.45
2023-05-09T07:18:31.848Z,19.47
2023-05-09T07:21:00.414Z,19.55
2023-05-09T07:23:27.453Z,19.68
2023-05-09T07:25:58.891Z,19.94
2023-05-09T07:28:26.134Z,20.08
2023-05-09T07:30:55.888Z,20.55
2023-05-09T07:33:23.993Z,21.08
2023-05-09T07:35:53.301Z,21.48
2023-05-09T07:38:20.356Z,21.63
2023-05-09T07:40:47.527Z,21.41
2023-05-09T07:43:18.170Z,21.19
2023-05-09T07:45:47.438Z,21.16
2023-05-09T07:48:18.401Z,21.18
2023-05-09T07:50:45.456Z,21.49
2023-05-09T07:53:12.261Z,21.68
2023-05-09T07:55:39.026Z,21.72
2023-05-09T07:58:06.080Z,21.55
2023-05-09T08:00:36.188Z,21.43
2023-05-09T08:03:03.510Z,21.21
2023-05-09T08:05:30.903Z,20.97
2023-05-09T08:07:57.834Z,20.79
2023-05-09T08:10:25.052Z,20.73
2023-05-09T08:12:52.464Z,20.96
2023-05-09T08:15:19.315Z,21.52
2023-05-09T08:17:46.617Z,22.21
2023-05-09T08:20:13.916Z,22.30
2023-05-09T08:22:44.782Z,22.00
2023-05-09T08:25:25.261Z,21.69
2023-05-09T08:27:53.200Z,21.51
2023-05-09T08:30:20.934Z,21.73
2023-05-09T08:32:47.796Z,21.74
2023-05-09T08:35:14.913Z,21.58
2023-05-09T08:37:42.238Z,21.57
2023-05-09T08:40:10.224Z,21.60
2023-05-09T08:42:40.779Z,21.59
2023-05-09T08:45:10.855Z,21.68
2023-05-09T08:47:39.312Z,21.74
2023-05-09T08:50:08.093Z,21.55
2023-05-09T08:52:38.685Z,21.46
2023-05-09T08:55:09.701Z,21.26
2023-05-09T08:57:37.256Z,21.06
2023-05-09T09:00:06.576Z,20.96
2023-05-09T09:02:34.243Z,21.00
2023-05-09T09:05:02.972Z,21.07
2023-05-09T09:07:31.334Z,21.01
2023-05-09T09:09:59.652Z,21.11
2023-05-09T09:12:26.773Z,21.33
2023-05-09T09:14:56.181Z,21.51
2023-05-09T09:17:28.142Z,21.56
2023-05-09T09:19:59.856Z,21.51
2023-05-09T09:22:33.835Z,21.50
2023-05-09T09:25:02.049Z,21.31
2023-05-09T09:27:28.975Z,21.00
2023-05-09T09:29:56.092Z,21.14
2023-05-09T09:32:34.188Z,21.57
2023-05-09T09:35:07.195Z,21.91
2023-05-09T09:37:35.785Z,22.05
2023-05-09T09:40:03.804Z,21.94
2023-05-09T09:42:44.919Z,21.67
2023-05-09T09:45:13.842Z,21.41
2023-05-09T09:47:43.074Z,21.23
2023-05-09T09:50:15.535Z,20.96
2023-05-09T09:52:54.140Z,20.93
2023-05-09T09:55:22.475Z,20.91
2023-05-09T09:57:49.383Z,20.83
2023-05-09T10:00:18.364Z,20.81
2023-05-09T10:02:56.130Z,20.84
2023-05-09T10:05:28.517Z,20.92
2023-05-09T10:08:00.086Z,21.21
2023-05-09T10:10:31.509Z,21.84
2023-05-09T10:13:09.572Z,22.72
2023-05-09T10:15:49.039Z,23.62
2023-05-09T10:18:19.990Z,24.39
2023-05-09T10:20:47.286Z,25.90
2023-05-09T10:23:16.670Z,27.61
2023-05-09T10:26:03.209Z,28.83
2023-05-09T10:28:34.332Z,30.76
2023-05-09T10:31:13.275Z,31.39
2023-05-09T10:33:51.063Z,29.85
2023-05-09T10:36:23.900Z,28.70
2023-05-09T10:38:54.196Z,29.19
2023-05-09T10:41:25.644Z,30.09
2023-05-09T10:43:53.092Z,30.39
2023-05-09T10:46:24.048Z,28.65
2023-05-09T10:48:51.290Z,27.40
2023-05-09T10:51:18.602Z,27.01
2023-05-09T10:53:48.053Z,26.71
2023-05-09T10:56:35.776Z,26.15
2023-05-09T10:59:02.979Z,25.75
2023-05-09T11:01:39.026Z,26.25
2023-05-09T11:04:14.605Z,27.86
2023-05-09T11:06:45.345Z,27.64
2023-05-09T11:09:34.726Z,27.30
2023-05-09T11:12:10.135Z,27.17
2023-05-09T11:14:45.578Z,26.93
2023-05-09T11:17:36.337Z,26.87
2023-05-09T11:20:05.896Z,26.30
2023-05-09T11:22:41.407Z,26.01
2023-05-09T11:25:09.312Z,25.74
2023-05-09T11:27:41.118Z,25.63
2023-05-09T11:30:09.018Z,25.43
2023-05-09T11:32:58.913Z,25.47
2023-05-09T11:35:28.942Z,25.70
2023-05-09T11:38:05.671Z,25.89
2023-05-09T11:40:34.019Z,25.95
2023-05-09T11:43:01.765Z,25.92
2023-05-09T11:45:31.272Z,25.47
2023-05-09T11:47:58.796Z,25.04
2023-05-09T11:50:25.821Z,24.82
2023-05-09T11:52:53.574Z,24.65
2023-05-09T11:55:30.242Z,24.24
2023-05-09T11:57:57.418Z,23.74
2023-05-09T12:00:26.271Z,23.11
2023-05-09T12:02:53.722Z,22.24
2023-05-09T12:05:22.855Z,21.06
2023-05-09T12:07:50.332Z,20.90
2023-05-09T12:10:20.457Z,21.07
2023-05-09T12:12:49.839Z,21.36
2023-05-09T12:15:17.665Z,21.78
2023-05-09T12:17:47.122Z,22.27
2023-05-09T12:20:15.144Z,23.02
2023-05-09T12:22:53.488Z,24.11
2023-05-09T12:25:20.256Z,25.08
2023-05-09T12:27:47.047Z,25.47
2023-05-09T12:30:16.154Z,25.77
2023-05-09T12:32:43.875Z,25.83
2023-05-09T12:35:11.310Z,25.48
2023-05-09T12:37:38.597Z,25.36
2023-05-09T12:40:13.071Z,25.55
2023-05-09T12:42:44.096Z,25.48
2023-05-09T12:45:11.581Z,25.35
2023-05-09T12:47:39.156Z,25.23
2023-05-09T12:50:07.171Z,25.13
2023-05-09T12:52:41.653Z,24.83
2023-05-09T12:55:15.306Z,24.82
2023-05-09T12:57:42.954Z,24.95
2023-05-09T13:00:12.106Z,25.04
2023-05-09T13:02:42.077Z,24.88
2023-05-09T13:05:10.822Z,24.78
2023-05-09T13:07:52.794Z,24.58
2023-05-09T13:10:24.253Z,24.56
2023-05-09T13:12:52.064Z,24.83
2023-05-09T13:15:21.054Z,25.19
2023-05-09T13:17:52.082Z,25.36
2023-05-09T13:20:19.878Z,25.41
2023-05-09T13:22:46.862Z,25.39
2023-05-09T13:25:13.853Z,25.39
2023-05-09T13:27:40.649Z,25.42
2023-05-09T13:30:08.493Z,25.39
2023-05-09T13:32:36.597Z,25.39
2023-05-09T13:35:06.759Z,25.37
2023-05-09T13:37:36.394Z,25.41
2023-05-09T13:40:04.376Z,25.69
2023-05-09T13:42:31.235Z,26.04
2023-05-09T13:44:58.021Z,26.15
2023-05-09T13:47:24.999Z,26.20
2023-05-09T13:49:52.286Z,26.00
2023-05-09T13:52:19.435Z,25.71
2023-05-09T13:54:46.533Z,25.48
2023-05-09T13:57:13.400Z,25.37
2023-05-09T13:59:43.506Z,25.18
2023-05-09T14:02:13.157Z,25.00
2023-05-09T14:04:39.994Z,24.94
2023-05-09T14:07:09.425Z,24.87
2023-05-09T14:09:39.987Z,24.81
2023-05-09T14:12:07.053Z,24.68
2023-05-09T14:14:34.037Z,24.56
2023-05-09T14:17:01.410Z,24.43
2023-05-09T14:19:30.323Z,24.29
2023-05-09T14:21:59.598Z,24.16
2023-05-09T14:24:26.400Z,24.07
2023-05-09T14:26:53.156Z,23.84
2023-05-09T14:29:19.974Z,23.83
2023-05-09T14:31:46.643Z,23.88
2023-05-09T14:34:13.290Z,23.88
2023-05-09T14:36:40.181Z,23.87
2023-05-09T14:39:07.492Z,23.92
2023-05-09T14:41:34.196Z,23.95
2023-05-09T14:44:00.968Z,23.94
2023-05-09T14:46:27.955Z,23.86
2023-05-09T14:48:54.752Z,23.79
2023-05-09T14:51:21.834Z,23.62
2023-05-09T14:53:48.570Z,23.49
2023-05-09T14:56:15.513Z,23.40
2023-05-09T14:58:42.491Z,23.30
2023-05-09T15:01:09.258Z,23.29
2023-05-09T15:03:36.159Z,23.25
2023-05-09T15:06:04.312Z,23.19
2023-05-09T15:08:31.387Z,23.13
2023-05-09T15:10:58.106Z,23.01
2023-05-09T15:13:32.606Z,22.99
2023-05-09T15:16:02.690Z,22.98
2023-05-09T15:18:49.860Z,22.99
2023-05-09T15:21:23.770Z,23.06
2023-05-09T15:23:53.845Z,23.08
2023-05-09T15:26:21.383Z,23.06
2023-05-09T15:28:48.965Z,23.04
2023-05-09T15:31:17.616Z,23.08
2023-05-09T15:36:39.514Z,23.17
2023-05-09T15:39:12.263Z,23.27
2023-05-09T15:41:39.764Z,23.36
2023-05-09T15:44:10.111Z,23.35
2023-05-09T15:46:43.142Z,23.30
2023-05-09T15:49:11.592Z,23.36
2023-05-09T15:51:42.449Z,23.38
2023-05-09T15:54:09.805Z,23.39
2023-05-09T15:56:42.567Z,23.35
2023-05-09T15:59:17.381Z,23.25
2023-05-09T16:01:44.513Z,23.19
2023-05-09T16:04:33.301Z,23.10
2023-05-09T16:07:09.209Z,22.98
2023-05-09T16:09:39.837Z,22.90
2023-05-09T16:12:12.988Z,22.89
2023-05-09T16:14:47.654Z,22.92
2023-05-09T16:17:16.639Z,22.84
2023-05-09T16:19:53.569Z,22.76
2023-05-09T16:22:28.184Z,22.75
2023-05-09T16:24:58.336Z,22.82
2023-05-09T16:27:32.407Z,22.79
2023-05-09T16:30:02.232Z,22.73
2023-05-09T16:32:32.736Z,22.70
2023-05-09T16:35:18.449Z,22.72
2023-05-09T16:37:48.615Z,22.70
2023-05-09T16:40:17.960Z,22.64
2023-05-09T16:42:47.601Z,22.61
2023-05-09T16:45:19.078Z,22.48
2023-05-09T16:47:49.323Z,22.40
2023-05-09T16:50:19.751Z,22.36
2023-05-09T16:53:02.141Z,22.24
2023-05-09T16:55:34.577Z,22.18
2023-05-09T16:58:09.756Z,22.23
2023-05-09T17:00:43.169Z,22.26
2023-05-09T17:03:19.315Z,22.29
2023-05-09T17:06:17.960Z,22.21
2023-05-09T17:08:56.149Z,22.18
2023-05-09T17:11:30.892Z,22.20
2023-05-09T17:14:20.052Z,22.21
2023-05-09T17:17:00.999Z,22.21
2023-05-09T17:19:31.980Z,22.16
2023-05-09T17:22:09.220Z,22.12
2023-05-09T17:24:47.095Z,22.05
2023-05-09T17:27:37.127Z,21.94
2023-05-09T17:30:16.107Z,21.85
2023-05-09T17:32:49.148Z,21.79
2023-05-09T17:38:11.002Z,21.64
2023-05-09T17:40:54.012Z,21.58
2023-05-09T17:43:25.051Z,21.52
2023-05-09T17:45:55.325Z,21.48
2023-05-09T17:48:23.486Z,21.45
2023-05-09T17:50:51.291Z,21.38
2023-05-09T17:53:18.898Z,21.26
2023-05-09T17:55:46.027Z,21.20
2023-05-09T17:58:15.061Z,21.15
2023-05-09T18:00:42.252Z,21.04
2023-05-09T18:03:09.346Z,20.98
2023-05-09T18:05:36.245Z,20.89
2023-05-09T18:08:06.623Z,20.61
2023-05-09T18:10:33.336Z,20.18
2023-05-09T18:13:12.420Z,19.69
2023-05-09T18:15:39.319Z,19.07
2023-05-09T18:18:09.868Z,18.52
2023-05-09T18:20:38.214Z,18.15
2023-05-09T18:23:10.819Z,17.93
2023-05-09T18:25:38.732Z,17.96
2023-05-09T18:28:05.571Z,17.98
2023-05-09T18:30:32.568Z,18.06
2023-05-09T18:33:01.554Z,18.20
2023-05-09T18:35:28.610Z,18.33
2023-05-09T18:37:58.459Z,18.42
2023-05-09T18:40:37.198Z,18.44
2023-05-09T18:45:57.204Z,18.56
2023-05-09T18:48:29.258Z,18.49
2023-05-09T18:50:56.462Z,18.40
2023-05-09T18:53:32.774Z,18.38
2023-05-09T18:56:26.602Z,18.42
2023-05-09T18:58:54.040Z,18.42
2023-05-09T19:01:24.556Z,18.39
2023-05-09T19:03:54.594Z,18.37
2023-05-09T19:06:22.265Z,18.40
2023-05-09T19:08:54.761Z,18.45
2023-05-09T19:11:22.401Z,18.40
2023-05-09T19:13:49.682Z,18.40
2023-05-09T19:16:36.514Z,18.35
2023-05-09T19:19:05.927Z,18.37
2023-05-09T19:21:34.304Z,18.43
2023-05-09T19:24:23.545Z,18.43
2023-05-09T19:26:59.839Z,18.42
2023-05-09T19:29:26.779Z,18.49
2023-05-09T19:32:04.338Z,18.50
2023-05-09T19:34:31.460Z,18.51
2023-05-09T19:36:58.242Z,18.54
2023-05-09T19:39:25.349Z,18.48
2023-05-09T19:41:52.391Z,18.47
2023-05-09T19:44:19.203Z,18.53
2023-05-09T19:46:46.533Z,18.48
2023-05-09T19:49:30.454Z,18.34
2023-05-09T19:51:57.487Z,18.31
2023-05-09T19:57:32.449Z,18.27
2023-05-09T19:59:59.472Z,18.23
2023-05-09T20:02:29.382Z,18.29
2023-05-09T20:05:02.152Z,18.33
2023-05-09T20:07:31.211Z,18.33
2023-05-09T20:09:58.025Z,18.34
2023-05-09T20:12:43.490Z,18.34
2023-05-09T20:15:15.481Z,18.24
2023-05-09T20:17:47.211Z,18.22
2023-05-09T20:20:14.242Z,18.24
2023-05-09T20:22:41.244Z,18.23
2023-05-09T20:25:08.312Z,18.16
2023-05-09T20:27:37.659Z,18.19
2023-05-09T20:30:05.184Z,18.21
2023-05-09T20:32:45.140Z,18.14
2023-05-09T20:35:12.297Z,18.08
2023-05-09T20:37:42.154Z,18.11
2023-05-09T20:40:14.685Z,18.17
2023-05-09T20:42:56.476Z,18.10
2023-05-09T20:45:34.235Z,18.05
2023-05-09T20:48:10.723Z,18.05
2023-05-09T20:50:37.700Z,18.12
2023-05-09T20:53:08.240Z,18.13
2023-05-09T20:55:38.063Z,18.08
2023-05-09T20:58:07.616Z,17.99
2023-05-09T21:00:35.909Z,17.99
2023-05-09T21:03:03.061Z,18.00
2023-05-09T21:05:30.052Z,17.99
2023-05-09T21:07:57.223Z,17.99
2023-05-09T21:10:24.292Z,17.96
2023-05-09T21:12:51.227Z,17.94
2023-05-09T21:15:18.248Z,17.88
2023-05-09T21:17:45.405Z,17.79
2023-05-09T21:20:14.980Z,17.74
2023-05-09T21:22:45.481Z,17.65
2023-05-09T21:25:12.716Z,17.67
2023-05-09T21:27:39.752Z,17.64
2023-05-09T21:30:07.830Z,17.59
2023-05-09T21:32:35.258Z,17.54
2023-05-09T21:35:04.203Z,17.53
2023-05-09T21:37:38.489Z,17.54
2023-05-09T21:40:06.599Z,17.47
2023-05-09T21:42:34.353Z,17.39
2023-05-09T21:45:01.632Z,17.38
2023-05-09T21:47:28.938Z,17.45
2023-05-09T21:49:57.330Z,17.37
2023-05-09T21:52:24.346Z,17.27
2023-05-09T21:54:51.411Z,17.14
2023-05-09T21:57:18.390Z,16.97
2023-05-09T21:59:45.327Z,16.80
2023-05-09T22:02:12.340Z,16.73
2023-05-09T22:04:40.252Z,16.73
2023-05-09T22:07:07.239Z,16.69
2023-05-09T22:09:34.088Z,16.71
2023-05-09T22:12:00.849Z,16.65
2023-05-09T22:14:27.762Z,16.74
2023-05-09T22:16:54.469Z,16.79
2023-05-09T22:19:21.363Z,16.73
2023-05-09T22:21:48.990Z,16.82
2023-05-09T22:24:16.190Z,16.95
2023-05-09T22:26:43.135Z,17.07
2023-05-09T22:29:10.154Z,17.15
2023-05-09T22:31:37.006Z,17.18
2023-05-09T22:34:03.950Z,17.16
2023-05-09T22:36:31.959Z,17.05
2023-05-09T22:38:58.633Z,17.02
2023-05-09T22:41:25.326Z,16.99
2023-05-09T22:43:52.026Z,16.95
2023-05-09T22:46:19.134Z,16.96
2023-05-09T22:48:48.273Z,16.97
2023-05-09T22:51:15.192Z,16.97
2023-05-09T22:53:41.951Z,16.96
2023-05-09T22:56:09.647Z,16.99
2023-05-09T22:58:36.672Z,17.00
2023-05-09T23:01:03.552Z,17.01
2023-05-09T23:03:30.659Z,17.01
2023-05-09T23:05:57.417Z,16.99
2023-05-09T23:08:24.217Z,16.97
2023-05-09T23:10:50.967Z,16.97
2023-05-09T23:13:17.843Z,16.95
2023-05-09T23:15:44.672Z,16.94
2023-05-09T23:18:12.233Z,16.96
2023-05-09T23:20:39.110Z,16.98
2023-05-09T23:23:06.102Z,16.98
2023-05-09T23:25:32.924Z,16.99
2023-05-09T23:27:59.754Z,17.01
2023-05-09T23:30:26.719Z,16.98
2023-05-09T23:32:53.830Z,16.98
2023-05-09T23:35:21.262Z,16.96
2023-05-09T23:37:48.534Z,16.96
2023-05-09T23:40:15.592Z,16.90
2023-05-09T23:42:42.816Z,16.87
2023-05-09T23:45:10.391Z,16.89
2023-05-09T23:47:37.239Z,16.90
2023-05-09T23:50:04.329Z,16.90
2023-05-09T23:52:31.657Z,16.88
2023-05-09T23:54:58.541Z,16.84
2023-05-09T23:57:27.706Z,16.79
2023-05-09T23:59:54.424Z,16.68
